Aérodrome :
LOGIN :

S'inscrire | Disclaimer

   EN    FR    IT 

 










Légende :    VFR   VFR Marginal   IFR   IFR Intensif   IFR Très Intensif
Visi : 
Plafond : 
>= 8 km
>= 3000ft
5 à 8 km
1000 à 3000 ft
1500m à 5 km
500 à 1000 ft
800 à 1500m
200 à 500 ft
< 800m
< 200 ft
Symboles :   Orages  Brouillard  Fortes neiges  Fortes précipitations  Vent > 20 kt
SIGMETs :   Divers  Orages  Givrage  Turbulence  Onde Orograph.  Cendres Volcan.







- Altitude de l'aérodrome : 1411 ft
- Code IATA : ZHI


LSZG - Grenchen

DERNIER METAR :
  • 192120Z AUTO 07009KT 9999 OVC026 01/M02 Q1004

METARs EXPIRÉS :
  • 192050Z AUTO 07009KT 9999 OVC027 01/M02 Q1004
  • 192020Z AUTO 06011KT 9999 BKN028 01/M02 Q1004
  • 191950Z AUTO 06011KT 9999 FEW016 OVC029 00/M01 Q1004
  • 191920Z AUTO 06011KT 9999 FEW016 OVC030 00/M02 Q1004
  • 191850Z AUTO 06010KT 9999 OVC032 01/M01 Q1004

TAF TAF LSZG
Valide du 19 à 15h jusqu'au 20 à 00h UTC


191425Z 1915/1924 06010KT 2000 -SN VV008
PROB40
TEMPO 1915/1918 0800 SN VV003
BECMG 1917/1920 8000 NSW BKN015
PROB40 1919/1924 4000 BKN012
ATIS : +41 32 396 96 33
Pas de NOTAMs connus pour ce terrain.



MET'MAP, la Météo Aéronautique d'un coup d'oeil ! - Copyright ORBIFLY Décembre 2007 - Disclaimer

ORBIFLY MET'MAP TEAM :

Programmation & Développement : Alexandra Zaïnal
Conception & Développement : Baudouin d'Aumeries
Co-Programmation & Développement : Marc-Olivier Méhu
Soutien technique & logistique : Manuel Goepfert

Contact : metmap@orbifly.com




SOURCES & CREDITS :

   NOAA